Time;durP1;ratioP1;P1;durP2;ratioP2;P2;SDS_P1;SDS_P2;PMS_P1;PMS_P2;Temp;Humidity;BMP_temperature;BMP_pressure;BME280_temperature;BME280_humidity;BME280_pressure;Samples;Min_cycle;Max_cycle;Signal;HPM_P1;HPM_P2
2021/06/11 00:00:51;;;;;;;;;;;;;;;-142.75;64.97;77290.81;5013577;28;20116;-74
2021/06/11 00:03:17;;;;;;;20.88;13.55;;;;;;;-142.75;65.38;77296.72;5030834;28;19913;-74
2021/06/11 00:05:42;;;;;;;;;;;;;;;-142.75;65.53;77290.81;5031719;28;20025;-74
2021/06/11 00:08:08;;;;;;;22.92;14.30;;;;;;;-142.75;65.43;77288.84;5013110;28;19995;-75
2021/06/11 00:10:34;;;;;;;;;;;;;;;-142.75;66.00;77298.69;5013526;28;20068;-75
2021/06/11 00:12:59;;;;;;;18.45;12.90;;;;;;;-142.75;65.96;77294.75;5030773;28;19924;-74
2021/06/11 00:15:25;;;;;;;;;;;;;;;-142.75;65.52;77290.81;5030857;28;20033;-74
2021/06/11 00:17:51;;;;;;;19.33;12.45;;;;;;;-142.75;65.12;77294.75;5017433;28;19985;-74
2021/06/11 00:20:16;;;;;;;;;;;;;;;-142.75;64.98;77294.75;5030677;28;20057;-75
2021/06/11 00:22:41;;;;;;;18.42;12.00;;;;;;;-142.75;64.89;77298.69;5012746;28;20007;-74
2021/06/11 00:25:08;;;;;;;;;;;;;;;-142.75;65.21;77302.63;5013103;28;20029;-75
2021/06/11 00:27:33;;;;;;;18.10;12.00;;;;;;;-142.75;65.77;77306.56;5030230;28;20007;-75
2021/06/11 00:29:58;;;;;;;;;;;;;;;-142.75;65.28;77306.56;5013436;28;20156;-75
2021/06/11 00:32:24;;;;;;;17.48;12.13;;;;;;;-142.75;65.90;77310.50;5030534;28;19917;-74
2021/06/11 00:34:49;;;;;;;;;;;;;;;-142.75;65.95;77306.56;5000506;28;20400;-75
2021/06/11 00:37:14;;;;;;;17.52;11.93;;;;;;;-142.75;65.87;77300.66;5010555;28;19952;-75
2021/06/11 00:39:39;;;;;;;;;;;;;;;-142.75;65.54;77298.69;5024881;28;20030;-74
2021/06/11 00:42:05;;;;;;;18.65;11.32;;;;;;;-142.75;65.36;77294.75;5028873;28;19963;-74
2021/06/11 00:44:31;;;;;;;20.25;11.65;;;;;;;-142.75;65.16;77294.75;5010527;28;20076;-75
2021/06/11 00:46:56;;;;;;;;;;;;;;;-142.75;64.96;77306.56;5029847;28;20512;-75
2021/06/11 00:49:21;;;;;;;16.58;11.23;;;;;;;-142.75;65.03;77308.53;5030127;28;19927;-75
2021/06/11 00:51:47;;;;;;;;;;;;;;;-142.75;65.08;77310.50;5030220;28;20449;-74
2021/06/11 00:54:13;;;;;;;19.42;10.15;;;;;;;-142.75;65.27;77316.41;5029887;28;19928;-75
2021/06/11 00:56:38;;;;;;;;;;;;;;;-142.75;65.58;77314.44;5029905;28;20025;-75
2021/06/11 00:59:04;;;;;;;14.38;8.90;;;;;;;-142.75;65.87;77314.44;5016500;28;19913;-74
2021/06/11 01:01:29;;;;;;;;;;;;;;;-142.75;65.46;77322.31;5030064;28;20029;-75
2021/06/11 01:03:54;;;;;;;11.55;6.25;;;;;;;-142.75;65.37;77318.38;5014444;28;20295;-75
2021/06/11 01:06:21;;;;;;;;;;;;;;;-142.75;65.25;77322.31;5011625;28;20030;-74
2021/06/11 01:08:46;;;;;;;11.60;8.38;;;;;;;-142.75;65.40;77322.31;5029692;28;20302;-75
2021/06/11 01:11:12;;;;;;;18.13;10.15;;;;;;;-142.75;66.04;77308.53;5012120;28;20026;-75
2021/06/11 01:13:37;;;;;;;;;;;;;;;-142.75;66.02;77310.50;5029886;28;20034;-75
2021/06/11 01:16:03;;;;;;;24.08;14.35;;;;;;;-142.75;66.95;77292.78;5028363;28;19967;-74
2021/06/11 01:18:29;;;;;;;34.30;18.88;;;;;;;-142.75;67.66;77279.00;5022290;28;20018;-74
2021/06/11 01:20:54;;;;;;;;;;;;;;;-142.75;68.14;77261.28;5017355;28;20440;-73
2021/06/11 01:23:35;;;;;;;50.92;25.75;;;;;;;-142.75;68.86;77251.44;5027442;28;19917;-73
2021/06/11 01:26:17;;;;;;;48.85;25.23;;;;;;;-142.75;68.70;77247.50;5012043;28;20454;-73
2021/06/11 01:28:42;;;;;;;49.15;24.58;;;;;;;-142.75;68.64;77237.66;5027975;28;20030;-75
2021/06/11 01:31:08;;;;;;;;;;;;;;;-142.75;68.63;77223.88;5022527;28;20084;-73
2021/06/11 01:33:35;;;;;;;59.20;27.33;;;;;;;-142.75;68.67;77208.13;5028338;28;20534;-75
2021/06/11 01:36:03;;;;;;;59.40;28.23;;;;;;;-142.75;68.58;77204.19;5029958;28;20056;-75
2021/06/11 01:38:36;;;;;;;46.15;24.27;;;;;;;-142.75;68.27;77204.19;5029056;28;20109;-73
2021/06/11 01:41:04;;;;;;;51.58;26.60;;;;;;;-142.75;68.34;77200.25;5029296;28;20100;-74
2021/06/11 01:43:31;;;;;;;53.05;26.00;;;;;;;-142.75;68.16;77192.38;5011448;28;20041;-75
2021/06/11 01:45:57;;;;;;;160.68;27.50;;;;;;;-142.75;68.97;77219.94;5006622;28;20021;-74
2021/06/11 01:48:23;;;;;;;;;;;;;;;-142.75;68.79;77212.06;5029553;28;20032;-74
2021/06/11 01:50:50;;;;;;;54.97;25.45;;;;;;;-142.75;68.76;77204.19;5029025;28;19913;-75
2021/06/11 01:53:16;;;;;;;55.72;28.05;;;;;;;-142.75;68.89;77194.34;5019684;28;20121;-75
2021/06/11 01:55:43;;;;;;;65.30;29.77;;;;;;;-142.75;68.79;77184.50;5022501;28;20029;-74
2021/06/11 01:58:10;;;;;;;61.47;29.27;;;;;;;-142.75;69.46;77190.41;4991804;28;20017;-74
2021/06/11 02:00:37;;;;;;;57.67;28.23;;;;;;;-142.75;69.10;77184.50;4991569;28;20534;-74
2021/06/11 02:03:03;;;;;;;63.40;29.58;;;;;;;-142.75;69.13;77168.75;5010896;28;20037;-74
2021/06/11 02:05:28;;;;;;;;;;;;;;;-142.75;69.07;77156.94;5013487;28;20383;-74
2021/06/11 02:07:55;;;;;;;70.45;30.38;;;;;;;-142.75;69.54;77149.06;5024761;28;19913;-74
2021/06/11 02:10:22;;;;;;;91.63;30.17;;;;;;;-142.75;69.30;77139.22;5021976;28;20026;-75
2021/06/11 02:12:49;;;;;;;95.72;31.77;;;;;;;-142.75;69.82;77166.78;5005275;28;20025;-74
2021/06/11 02:15:16;;;;;;;88.60;33.83;;;;;;;-142.75;70.21;77172.69;5008968;28;20018;-75
2021/06/11 02:17:44;;;;;;;112.57;35.75;;;;;;;-142.75;71.04;77192.38;5014136;28;20053;-74
2021/06/11 02:20:12;;;;;;;124.45;35.58;;;;;;;-142.75;72.20;77206.16;5015996;28;20030;-74
2021/06/11 02:22:38;;;;;;;89.55;34.88;;;;;;;-142.75;72.45;77198.28;5007433;28;20017;-74
2021/06/11 02:25:05;;;;;;;79.70;33.33;;;;;;;-142.75;71.82;77176.63;5014914;28;20030;-75
2021/06/11 02:27:33;;;;;;;78.10;32.58;;;;;;;-142.75;71.41;77168.75;4994272;28;20101;-73
2021/06/11 02:29:59;;;;;;;76.63;32.90;;;;;;;-142.75;70.98;77162.84;5013071;28;20022;-74
2021/06/11 02:32:26;;;;;;;78.70;33.35;;;;;;;-142.75;70.70;77168.75;5014370;28;20032;-72
2021/06/11 02:34:51;;;;;;;84.57;34.47;;;;;;;-142.75;70.99;77166.78;5033252;28;20025;-75
2021/06/11 02:37:16;;;;;;;75.43;33.53;;;;;;;-142.75;70.78;77153.00;5013713;28;20104;-73
2021/06/11 02:39:42;;;;;;;69.05;31.25;;;;;;;-142.75;70.75;77151.03;4995340;28;20087;-75
2021/06/11 02:42:08;;;;;;;;;;;;;;;-142.75;70.68;77135.28;5032516;28;20040;-73
2021/06/11 02:44:39;;;;;;;66.85;30.98;;;;;;;-142.75;70.06;77141.19;5032372;28;19920;-75
2021/06/11 02:47:16;;;;;;;54.92;30.23;;;;;;;-142.75;69.86;77141.19;5032241;28;20017;-74
2021/06/11 02:49:59;;;;;;;51.85;29.83;;;;;;;-142.75;69.83;77133.31;5032488;28;20033;-75
2021/06/11 02:52:28;;;;;;;42.50;25.50;;;;;;;-142.75;69.43;77133.31;5032344;28;20029;-74
2021/06/11 02:57:21;;;;;;;42.42;24.42;;;;;;;-142.75;68.98;77145.13;5007512;28;20049;-76
2021/06/11 02:59:47;;;;;;;;;;;;;;;-142.75;69.05;77141.19;5026066;28;20049;-75
2021/06/11 03:02:21;;;;;;;38.55;22.60;;;;;;;-142.75;69.44;77137.25;5018030;28;19913;-75
2021/06/11 03:04:48;;;;;;;41.10;24.85;;;;;;;-142.75;69.32;77143.16;5012004;28;20475;-76
2021/06/11 03:07:22;;;;;;;39.67;23.02;;;;;;;-142.75;69.25;77137.25;5017543;28;20032;-76
2021/06/11 03:09:48;;;;;;;37.83;23.30;;;;;;;-142.75;69.30;77133.31;5027986;28;20028;-75
2021/06/11 03:12:15;;;;;;;38.63;24.02;;;;;;;-142.75;69.23;77135.28;5023792;28;20083;-76
2021/06/11 03:14:41;;;;;;;40.00;23.95;;;;;;;-142.75;69.06;77137.25;5031293;28;20029;-73
2021/06/11 03:17:09;;;;;;;40.45;22.67;;;;;;;-142.75;69.06;77143.16;5030272;28;20403;-73
2021/06/11 03:19:38;;;;;;;34.45;21.88;;;;;;;-142.75;68.96;77135.28;5022244;28;20072;-75
2021/06/11 03:22:08;;;;;;;33.35;20.67;;;;;;;-142.75;69.08;77145.13;5023215;28;20080;-76
2021/06/11 03:24:41;;;;;;;31.25;20.90;;;;;;;-142.75;68.72;77145.13;5012267;28;20088;-74
2021/06/11 03:27:09;;;;;;;36.92;21.63;;;;;;;-142.75;68.76;77139.22;5015982;28;20554;-75
2021/06/11 03:29:48;;;;;;;35.65;20.60;;;;;;;-142.75;68.95;77135.28;5013499;28;20060;-75
2021/06/11 03:32:24;;;;;;;38.42;21.65;;;;;;;-142.75;68.84;77137.25;5017681;28;20025;-75
2021/06/11 03:34:51;;;;;;;34.72;21.02;;;;;;;-142.75;69.11;77129.38;5021775;28;20060;-75
2021/06/11 03:37:18;;;;;;;37.80;21.15;;;;;;;-142.75;69.24;77117.56;5030161;28;20033;-75
2021/06/11 03:39:46;;;;;;;36.90;21.42;;;;;;;-142.75;69.07;77117.56;5017293;28;20024;-75
2021/06/11 03:42:12;;;;;;;36.28;22.77;;;;;;;-142.75;68.90;77119.53;5011842;28;20045;-74
2021/06/11 03:44:42;;;;;;;;;;;;;;;-142.75;68.85;77117.56;5011055;28;20391;-75
2021/06/11 03:47:11;;;;;;;31.48;20.75;;;;;;;-142.75;68.81;77113.63;5011331;28;19928;-76
2021/06/11 03:49:39;;;;;;;32.50;20.02;;;;;;;-142.75;68.80;77113.63;5016729;28;20083;-74
2021/06/11 03:52:05;;;;;;;33.92;20.15;;;;;;;-142.75;68.82;77115.59;5031390;28;20561;-75
2021/06/11 03:54:31;;;;;;;;;;;;;;;-142.75;68.67;77117.56;5031580;28;20017;-72
2021/06/11 03:56:58;;;;;;;31.73;20.63;;;;;;;-142.75;68.35;77105.75;5030278;28;19963;-75
2021/06/11 03:59:24;;;;;;;31.80;21.10;;;;;;;-142.75;68.21;77105.75;5021230;28;20030;-75
2021/06/11 04:01:52;;;;;;;31.83;21.30;;;;;;;-142.75;67.86;77107.72;5012950;28;20029;-74
2021/06/11 04:04:17;;;;;;;29.02;20.50;;;;;;;-142.75;67.72;77109.69;5010713;28;20014;-75
2021/06/11 04:06:46;;;;;;;;;;;;;;;-142.75;68.07;77109.69;5030958;28;20025;-76
2021/06/11 04:09:18;;;;;;;31.02;20.83;;;;;;;-142.75;68.21;77123.47;5026767;28;20396;-74
2021/06/11 04:11:48;;;;;;;32.78;20.27;;;;;;;-142.75;68.41;77115.59;5029621;28;20399;-76
2021/06/11 04:14:26;;;;;;;32.97;22.58;;;;;;;-142.75;68.15;77101.81;5014735;28;20022;-75
2021/06/11 04:16:57;;;;;;;34.53;22.23;;;;;;;-142.75;67.81;77099.84;5028797;28;20449;-76
2021/06/11 04:19:25;;;;;;;33.47;23.38;;;;;;;-142.75;68.01;77091.97;5029620;28;20024;-76
2021/06/11 04:21:54;;;;;;;33.50;22.23;;;;;;;-142.75;68.00;77095.91;5026315;28;20399;-74
2021/06/11 04:24:25;;;;;;;33.40;22.77;;;;;;;-142.75;68.07;77093.94;5010985;28;20484;-75
2021/06/11 04:26:53;;;;;;;31.00;21.00;;;;;;;-142.75;68.03;77091.97;5014221;28;20030;-75
2021/06/11 04:29:20;;;;;;;36.20;23.08;;;;;;;-142.75;67.73;77093.94;5014337;28;20026;-75
2021/06/11 04:31:46;;;;;;;42.90;25.80;;;;;;;-142.75;67.90;77091.97;5015086;28;20076;-73
2021/06/11 04:34:15;;;;;;;;;;;;;;;-142.75;67.81;77088.03;5025629;28;20017;-74
2021/06/11 04:36:43;;;;;;;37.22;23.58;;;;;;;-142.75;67.60;77082.13;5031273;28;19933;-76
2021/06/11 04:39:08;;;;;;;36.45;24.27;;;;;;;-142.75;67.39;77080.16;5030315;28;20112;-75
2021/06/11 04:41:34;;;;;;;;;;;;;;;-142.75;67.36;77076.22;5018421;28;20100;-76
2021/06/11 04:44:01;;;;;;;41.22;26.23;;;;;;;-142.75;67.16;77080.16;5030425;28;19913;-76
2021/06/11 04:46:27;;;;;;;41.08;27.45;;;;;;;-142.75;67.19;77086.06;5024329;28;20061;-75
2021/06/11 04:48:53;;;;;;;;;;;;;;;-142.75;67.32;77088.03;5011087;28;20156;-76
2021/06/11 04:51:18;;;;;;;42.67;28.63;;;;;;;-142.75;67.14;77084.09;5009481;28;19935;-76
2021/06/11 04:53:43;;;;;;;;;;;;;;;-142.75;67.19;77086.06;5011280;28;20022;-76
2021/06/11 04:56:09;;;;;;;45.97;29.02;;;;;;;-142.75;67.50;77090.00;5008814;28;20580;-75
2021/06/11 04:58:38;;;;;;;;;;;;;;;-142.75;67.63;77086.06;5009591;28;20022;-76
2021/06/11 05:01:08;;;;;;;51.65;31.73;;;;;;;-142.75;67.87;77074.25;5026005;28;19974;-75
2021/06/11 05:03:34;;;;;;;60.35;35.55;;;;;;;-142.75;67.56;77064.41;5015815;28;20442;-74
2021/06/11 05:06:04;;;;;;;62.20;36.40;;;;;;;-142.75;67.59;77064.41;5011745;28;20080;-76
2021/06/11 05:08:29;;;;;;;66.75;37.85;;;;;;;-142.75;67.59;77050.63;5020217;28;20055;-75
2021/06/11 05:10:55;;;;;;;;;;;;;;;-142.75;67.46;77056.53;5030951;28;20683;-75
2021/06/11 05:13:21;;;;;;;76.95;41.30;;;;;;;-142.75;67.59;77044.72;5031766;28;19947;-75
2021/06/11 05:15:46;;;;;;;;;;;;;;;-142.75;67.31;77034.88;5027724;28;20026;-76
2021/06/11 05:18:11;;;;;;;71.13;42.92;;;;;;;-142.75;67.14;77027.00;5030477;28;19996;-75
2021/06/11 05:20:38;;;;;;;;;;;;;;;-142.75;66.75;77019.13;5030682;28;20394;-76
2021/06/11 05:23:04;;;;;;;69.18;40.92;;;;;;;-142.75;66.52;76993.53;5031629;28;19917;-76
2021/06/11 05:25:29;;;;;;;;;;;;;;;-142.75;66.48;76999.44;5025876;28;20071;-75
2021/06/11 05:27:55;;;;;;;67.20;39.10;;;;;;;-142.75;66.32;76991.56;5011808;28;20012;-76
2021/06/11 05:30:20;;;;;;;;;;;;;;;-142.75;66.25;76979.75;5010771;28;20026;-74
2021/06/11 05:32:46;;;;;;;64.18;39.10;;;;;;;-142.75;65.90;76973.84;5015054;28;20388;-75
2021/06/11 05:35:11;;;;;;;;;;;;;;;-142.75;65.81;76962.03;5024816;28;20041;-76
2021/06/11 05:37:37;;;;;;;68.20;41.35;;;;;;;-142.75;65.75;76950.22;5024207;28;20059;-77
2021/06/11 05:40:02;;;;;;;;;;;;;;;-142.75;65.66;76948.25;5009934;28;20032;-76
2021/06/11 05:42:27;;;;;;;62.53;38.58;;;;;;;-142.75;65.46;76928.56;5010212;28;19920;-76
2021/06/11 05:44:53;;;;;;;;;;;;;;;-142.75;65.46;76914.78;5020613;28;20517;-75
2021/06/11 05:47:18;;;;;;;60.55;36.53;;;;;;;-142.75;65.00;76908.88;5010271;28;19920;-76
2021/06/11 05:49:43;;;;;;;;;;;;;;;-142.75;64.50;76899.03;5028029;28;20029;-76
2021/06/11 05:52:08;;;;;;;60.38;36.38;;;;;;;-142.75;64.02;76885.25;5029979;28;20334;-76
2021/06/11 05:54:34;;;;;;;59.03;35.60;;;;;;;-142.75;63.96;76904.94;5011818;28;20483;-75
2021/06/11 05:56:59;;;;;;;;;;;;;;;-142.75;64.20;76897.06;5008913;28;20030;-76
2021/06/11 05:59:24;;;;;;;58.53;33.35;;;;;;;-142.75;64.08;76887.22;5010256;28;20294;-77
2021/06/11 06:01:49;;;;;;;55.83;33.00;;;;;;;-142.75;63.45;76885.25;5008599;28;20415;-76
2021/06/11 06:04:15;;;;;;;;;;;;;;;-142.75;63.50;76889.19;5009181;28;20025;-75
2021/06/11 06:06:40;;;;;;;57.63;30.77;;;;;;;-142.75;64.12;76883.28;5008788;28;19940;-76
2021/06/11 06:09:05;;;;;;;;;;;;;;;-142.75;63.93;76881.31;5010662;28;20444;-75
2021/06/11 06:11:30;;;;;;;49.80;29.80;;;;;;;-142.75;63.28;76875.41;5024102;28;19919;-74
2021/06/11 06:13:56;;;;;;;;;;;;;;;-142.75;63.24;76871.47;5028998;28;20029;-75
2021/06/11 06:16:21;;;;;;;52.75;29.95;;;;;;;-142.75;63.54;76869.50;5029283;28;19988;-75
2021/06/11 06:18:47;;;;;;;49.80;29.25;;;;;;;-142.75;63.40;76867.53;5029568;28;20047;-73
2021/06/11 06:21:12;;;;;;;46.75;28.13;;;;;;;-142.75;62.61;76861.63;5029930;28;20449;-74
2021/06/11 06:23:38;;;;;;;45.30;27.13;;;;;;;-142.75;63.00;76857.69;5028359;28;20033;-75
2021/06/11 06:26:03;;;;;;;50.63;29.92;;;;;;;-142.75;63.24;76861.63;5029421;28;20040;-74
2021/06/11 06:28:29;;;;;;;47.40;29.38;;;;;;;-142.75;63.12;76845.88;5029540;28;20483;-74
2021/06/11 06:30:54;;;;;;;;;;;;;;;-142.75;62.99;76838.00;5027623;28;20035;-75
2021/06/11 06:33:20;;;;;;;49.10;29.73;;;;;;;-142.75;63.10;76798.66;5008612;28;19917;-75
2021/06/11 06:35:45;;;;;;;46.70;30.30;;;;;;;-142.75;62.04;76739.59;5008782;28;20116;-73
2021/06/11 06:38:13;;;;;;;46.92;30.15;;;;;;;-142.75;60.91;76672.66;5010707;28;20109;-75
2021/06/11 06:40:38;;;;;;;44.75;31.08;;;;;;;-142.75;59.37;76641.16;5010436;28;20097;-75
2021/06/11 06:43:03;;;;;;;46.95;30.30;;;;;;;-142.75;59.15;76593.91;5009499;28;20105;-77
2021/06/11 06:45:29;;;;;;;46.05;30.55;;;;;;;-142.75;58.44;76554.53;5009081;28;20057;-75
2021/06/11 06:47:54;;;;;;;42.45;29.35;;;;;;;-142.75;57.75;76525.03;5010797;28;20455;-76
2021/06/11 06:50:20;;;;;;;46.80;29.35;;;;;;;-142.75;56.73;76473.84;5010750;28;20033;-76
2021/06/11 06:52:46;;;;;;;45.35;30.38;;;;;;;-142.75;55.50;76487.63;5009261;28;20030;-75
2021/06/11 06:55:12;;;;;;;42.63;30.42;;;;;;;-142.75;55.08;76450.22;5009227;28;20049;-76
2021/06/11 06:57:38;;;;;;;40.10;28.58;;;;;;;-142.75;54.44;76399.03;5009108;28;20033;-76
2021/06/11 07:00:05;;;;;;;39.97;28.85;;;;;;;-142.75;53.03;76322.28;5010863;28;20033;-75
2021/06/11 07:02:30;;;;;;;39.13;28.73;;;;;;;-142.75;52.81;76310.47;5010890;28;20045;-75
2021/06/11 07:04:55;;;;;;;38.92;27.90;;;;;;;-142.75;53.33;76351.81;5027749;28;20399;-75
2021/06/11 07:07:20;;;;;;;37.10;27.92;;;;;;;-142.75;53.10;76377.38;5029951;28;20135;-76
2021/06/11 07:09:46;;;;;;;35.88;25.20;;;;;;;-142.75;53.28;76424.63;5030126;28;20395;-75
2021/06/11 07:12:11;;;;;;;37.63;26.42;;;;;;;-142.75;54.54;76460.06;5030309;28;20037;-76
2021/06/11 07:14:37;;;;;;;37.58;25.17;;;;;;;-142.75;54.88;76491.56;5030447;28;20014;-76
2021/06/11 07:17:03;;;;;;;35.38;25.90;;;;;;;-142.75;55.09;76503.38;5033607;28;20036;-76
2021/06/11 07:19:29;;;;;;;38.83;28.35;;;;;;;-142.75;55.63;76515.19;5032652;28;20103;-76
2021/06/11 07:21:54;;;;;;;33.25;23.90;;;;;;;-142.75;55.35;76521.09;5034090;28;20430;-75
2021/06/11 07:24:20;;;;;;;30.83;24.27;;;;;;;-142.75;56.21;76534.84;5032392;28;20076;-76
2021/06/11 07:26:45;;;;;;;32.83;24.30;;;;;;;-142.75;56.57;76517.16;5032230;28;20410;-76
2021/06/11 07:29:11;;;;;;;31.00;23.17;;;;;;;-142.75;55.04;76507.31;5033957;28;20401;-75
2021/06/11 07:31:36;;;;;;;30.20;24.13;;;;;;;-142.75;55.00;76519.13;5032543;28;20510;-75
2021/06/11 07:34:01;;;;;;;30.85;22.45;;;;;;;-142.75;54.85;76527.00;5033610;28;20017;-74
2021/06/11 07:36:27;;;;;;;28.40;23.13;;;;;;;-142.75;55.07;76548.63;5033128;28;20048;-75
2021/06/11 07:38:52;;;;;;;27.02;21.63;;;;;;;-142.75;55.82;76574.22;5032365;28;20424;-75
2021/06/11 07:41:17;;;;;;;28.98;21.63;;;;;;;-142.75;56.78;76580.13;5033104;28;20518;-75
2021/06/11 07:43:43;;;;;;;28.15;21.23;;;;;;;-142.75;57.01;76588.00;5033426;28;20040;-76
2021/06/11 07:46:08;;;;;;;26.52;20.90;;;;;;;-142.75;56.63;76599.81;5031781;28;20499;-75
2021/06/11 07:48:34;;;;;;;23.45;19.05;;;;;;;-142.75;56.97;76635.25;5033172;28;20021;-75
2021/06/11 07:50:59;;;;;;;24.88;20.20;;;;;;;-142.75;56.99;76617.53;5032092;28;20033;-75
2021/06/11 07:53:24;;;;;;;27.90;21.77;;;;;;;-142.75;57.20;76595.88;5031888;28;20029;-75
2021/06/11 07:55:51;;;;;;;26.27;21.02;;;;;;;-142.75;56.12;76582.09;5031542;28;20036;-75
2021/06/11 07:58:16;;;;;;;26.95;21.73;;;;;;;-142.75;56.12;76574.22;5031798;28;20079;-75
2021/06/11 08:00:42;;;;;;;26.83;22.42;;;;;;;-142.75;55.68;76562.41;5033264;28;20025;-74
2021/06/11 08:03:07;;;;;;;26.05;22.02;;;;;;;-142.75;55.83;76542.72;5031798;28;20025;-76
2021/06/11 08:05:32;;;;;;;27.65;21.95;;;;;;;-142.75;54.85;76542.72;5032774;28;20412;-75
2021/06/11 08:07:58;;;;;;;28.02;22.17;;;;;;;-142.75;56.29;76527.00;5031631;28;20029;-75
2021/06/11 08:10:24;;;;;;;26.20;20.05;;;;;;;-142.75;55.96;76507.31;5032085;28;20033;-75
2021/06/11 08:12:49;;;;;;;25.60;19.38;;;;;;;-142.75;54.65;76519.13;5031694;28;20491;-76
2021/06/11 08:15:15;;;;;;;19.83;17.13;;;;;;;-142.75;55.57;76532.88;5032854;28;20033;-76
2021/06/11 08:17:40;;;;;;;19.38;14.07;;;;;;;-142.75;55.01;76534.84;5031328;28;20057;-75
2021/06/11 08:20:07;;;;;;;20.40;15.85;;;;;;;-142.75;55.87;76566.34;5031538;28;20503;-75
2021/06/11 08:22:33;;;;;;;17.63;15.57;;;;;;;-142.75;55.46;76527.00;5032812;28;20087;-73
2021/06/11 08:24:58;;;;;;;16.38;12.80;;;;;;;-142.75;55.11;76491.56;5031205;28;20112;-76
2021/06/11 08:27:23;;;;;;;15.77;12.70;;;;;;;-142.75;54.85;76446.28;5031044;28;20118;-75
2021/06/11 08:29:49;;;;;;;14.15;9.88;;;;;;;-142.75;53.57;76444.31;5032501;28;20021;-76
2021/06/11 08:32:15;;;;;;;11.45;8.60;;;;;;;-142.75;53.38;76440.38;5032445;28;20073;-77
2021/06/11 08:34:40;;;;;;;13.00;9.57;;;;;;;-142.75;53.11;76422.66;5031188;28;20026;-76
2021/06/11 08:37:07;;;;;;;11.60;8.55;;;;;;;-142.75;53.81;76399.03;5031056;28;20033;-77
2021/06/11 08:39:34;;;;;;;10.93;8.95;;;;;;;-142.75;52.44;76373.44;5031472;28;20052;-77
2021/06/11 08:41:59;;;;;;;13.40;9.00;;;;;;;-142.75;52.20;76367.53;5031596;28;20104;-76
2021/06/11 08:44:28;;;;;;;10.70;8.20;;;;;;;-142.75;52.47;76353.78;5031067;28;20097;-75
2021/06/11 08:46:54;;;;;;;13.45;8.80;;;;;;;-142.75;52.36;76349.81;5031960;28;20033;-75
2021/06/11 08:49:23;;;;;;;14.98;9.60;;;;;;;-142.75;52.76;76296.69;5032288;28;20100;-75
2021/06/11 08:51:49;;;;;;;13.30;9.43;;;;;;;-142.75;53.47;76369.50;5032280;28;20116;-76
2021/06/11 08:54:14;;;;;;;12.00;9.27;;;;;;;-142.75;52.17;76282.91;5030915;28;20104;-76
2021/06/11 08:56:39;;;;;;;14.18;9.20;;;;;;;-142.75;50.92;76251.41;5053454;22;20041;-72
2021/06/11 08:59:06;;;;;;;13.18;10.13;;;;;;;-142.75;50.18;76300.63;5030920;28;20021;-73
2021/06/11 09:01:32;;;;;;;12.45;9.40;;;;;;;-142.75;51.49;76288.81;5031354;28;20049;-73
2021/06/11 09:03:59;;;;;;;12.13;10.05;;;;;;;-142.75;49.95;76292.75;5031929;28;20542;-73
2021/06/11 09:06:24;;;;;;;13.93;9.82;;;;;;;-142.75;51.68;76318.34;5031657;28;20080;-74
2021/06/11 09:08:57;;;;;;;13.82;10.32;;;;;;;-142.75;51.37;76314.41;5014131;28;20029;-74
2021/06/11 09:11:28;;;;;;;13.73;9.82;;;;;;;-142.75;50.95;76310.47;5032863;28;20024;-74
2021/06/11 09:14:15;;;;;;;12.77;10.32;;;;;;;-142.75;50.67;76275.03;5051631;28;20029;-74
2021/06/11 09:16:46;;;;;;;14.18;9.05;;;;;;;-142.75;50.89;76200.25;5033383;28;20079;-76
2021/06/11 09:19:13;;;;;;;11.52;9.73;;;;;;;-142.75;48.22;76190.41;5033743;28;20025;-74
2021/06/11 09:21:44;;;;;;;15.63;9.32;;;;;;;-142.75;49.51;76208.09;5051518;28;20025;-74
2021/06/11 09:24:26;;;;;;;15.43;10.20;;;;;;;-142.75;48.86;76245.50;5051521;28;20029;-74
2021/06/11 09:26:57;;;;;;;15.77;10.95;;;;;;;-142.75;49.95;76318.34;5051011;28;20037;-75
2021/06/11 09:29:33;;;;;;;15.32;10.68;;;;;;;-142.75;51.77;76300.63;5051365;28;20040;-73
2021/06/11 09:32:27;;;;;;;14.77;11.82;;;;;;;-142.75;50.84;76326.22;5051406;28;20079;-72
2021/06/11 09:34:57;;;;;;;14.30;10.73;;;;;;;-142.75;51.02;76296.69;5051177;28;20554;-73
2021/06/11 09:37:31;;;;;;;14.88;10.13;;;;;;;-142.75;51.31;76278.97;5050227;28;20021;-74
2021/06/11 09:40:00;;;;;;;12.68;10.25;;;;;;;-142.75;50.58;76275.03;5050508;28;20039;-74
2021/06/11 09:42:28;;;;;;;12.40;9.98;;;;;;;-142.75;50.22;76290.78;5050812;28;20021;-73
2021/06/11 09:45:02;;;;;;;14.40;9.63;;;;;;;-142.75;50.51;76296.69;5033204;28;20024;-74
2021/06/11 09:47:38;;;;;;;13.38;10.80;;;;;;;-142.75;51.03;76302.59;5050835;28;20055;-74
2021/06/11 09:50:11;;;;;;;14.38;10.50;;;;;;;-142.75;50.61;76306.53;5050911;28;20020;-74
2021/06/11 09:52:59;;;;;;;13.13;9.50;;;;;;;-142.75;51.66;76341.97;5050746;28;20044;-74
2021/06/11 09:55:32;;;;;;;12.60;9.70;;;;;;;-142.75;51.52;76359.66;5032651;28;20075;-74
2021/06/11 09:58:28;;;;;;;13.57;9.63;;;;;;;-142.75;51.09;76393.13;5050811;28;20104;-74
2021/06/11 10:00:58;;;;;;;18.10;13.45;;;;;;;-142.75;52.09;76412.81;5050820;28;20028;-74
2021/06/11 10:03:31;;;;;;;26.02;20.83;;;;;;;-142.75;51.67;76434.47;5050904;28;20494;-74
2021/06/11 10:06:01;;;;;;;23.88;17.67;;;;;;;-142.75;52.60;76442.34;5050489;28;20386;-73
2021/06/11 10:08:28;;;;;;;19.02;16.45;;;;;;;-142.75;52.08;76440.38;5032926;28;20474;-74
2021/06/11 10:10:56;;;;;;;27.20;20.00;;;;;;;-142.75;53.00;76432.50;5032751;28;20033;-73
2021/06/11 10:13:22;;;;;;;30.25;23.23;;;;;;;-142.75;52.83;76399.03;5050548;28;20021;-74
2021/06/11 10:15:50;;;;;;;29.88;24.08;;;;;;;-142.75;52.53;76365.56;5050304;28;20048;-74
2021/06/11 10:18:16;;;;;;;29.40;25.10;;;;;;;-142.75;51.87;76345.91;5032584;28;20131;-75
2021/06/11 10:20:43;;;;;;;30.50;23.92;;;;;;;-142.75;51.86;76318.34;5032815;28;20089;-74
2021/06/11 10:23:11;;;;;;;32.00;25.90;;;;;;;-142.75;51.23;76282.91;5050633;28;20032;-75
2021/06/11 10:25:41;;;;;;;32.40;25.55;;;;;;;-142.75;51.20;76271.09;5049874;28;20051;-74
2021/06/11 10:28:07;;;;;;;28.67;23.95;;;;;;;-142.75;50.57;76275.03;5049533;28;20112;-74
2021/06/11 10:30:33;;;;;;;29.85;23.95;;;;;;;-142.75;50.64;76278.97;5050472;28;20029;-73
2021/06/11 10:32:59;;;;;;;29.70;22.98;;;;;;;-142.75;50.61;76277.00;5050425;28;20033;-74
2021/06/11 10:35:48;;;;;;;25.20;20.25;;;;;;;-142.75;50.61;76284.88;5050072;28;20033;-74
2021/06/11 10:38:31;;;;;;;24.13;20.00;;;;;;;-142.75;50.93;76290.78;5050008;28;20031;-74
2021/06/11 10:41:06;;;;;;;21.08;17.35;;;;;;;-142.75;50.30;76298.66;5049805;28;20087;-74
2021/06/11 10:43:37;;;;;;;23.73;18.63;;;;;;;-142.75;50.54;76300.63;5050368;28;20371;-73
2021/06/11 10:46:26;;;;;;;24.50;18.98;;;;;;;-142.75;51.41;76361.63;5050030;28;20032;-72
2021/06/11 10:49:07;;;;;;;22.95;18.15;;;;;;;-142.75;51.49;76322.28;5052659;28;20063;-73
2021/06/11 10:51:45;;;;;;;20.85;18.23;;;;;;;-142.75;51.33;76288.81;5054493;28;20056;-73
2021/06/11 10:54:17;;;;;;;23.95;18.25;;;;;;;-142.75;51.08;76280.94;5036299;28;20108;-74
2021/06/11 10:57:01;;;;;;;21.67;17.17;;;;;;;-142.75;50.53;76278.97;5053700;28;20454;-74
2021/06/11 10:59:34;;;;;;;24.13;18.40;;;;;;;-142.75;51.08;76278.97;5036369;28;20032;-74
2021/06/11 11:01:59;;;;;;;22.63;18.77;;;;;;;-142.75;50.39;76284.88;5054155;28;20104;-74
2021/06/11 11:04:30;;;;;;;22.90;17.50;;;;;;;-142.75;51.79;76286.84;5054094;28;20048;-73
2021/06/11 11:06:56;;;;;;;22.40;16.23;;;;;;;-142.75;50.89;76284.88;5053679;28;20021;-74
2021/06/11 11:09:21;;;;;;;21.70;17.00;;;;;;;-142.75;50.71;76302.59;5036073;28;20395;-73
2021/06/11 11:11:47;;;;;;;23.83;20.60;;;;;;;-142.75;50.86;76345.91;5053995;28;20037;-74
2021/06/11 11:14:41;;;;;;;25.90;20.88;;;;;;;-142.75;51.05;76389.19;5053880;28;20096;-74
2021/06/11 11:17:08;;;;;;;27.60;22.42;;;;;;;-142.75;52.55;76410.84;5037394;28;20397;-74
2021/06/11 11:19:51;;;;;;;23.80;20.40;;;;;;;-142.75;53.03;76416.75;5033865;28;20159;-73